aviador You're here:

LFST Decoded Metar

STRASSBOURG in FRANCE
Report Time2017-11-20 23:00:00
UTC Time2017-11-20 23:08:21
Flight Rules mvfr MVFR
WindVRB at 04 kt
Visibility9999 m
Phenomena:N/A
Clouds:Overcast 025 Hf
Expected CloudBase > 800 ft AGL from Temp-Dew spread
Ceiling2,500 ft
Temp06°C (ISA -8)
Dew Point04°C (87% RH)
AAT3.2°C
QNH1020 hPa
Density Alt-584 ft
Elevation505 ft
Report Wrong Elevation
Raw Report
METAR LFST 202300Z AUTO VRB04KT 9999 OVC025/// ///CB 06/04 Q1020
TEMPO 4000 -RADZ OVC008=

Extra information for LFST:More info

Metar Taf Metar & Taf Last 4 Metars F.Rules Stats Wind Profile Meteogram Temp Stats Airport Information Weather charts Add Link Nearby VenuesMetar ALERT Operation Metar Decoded Social comments